Terminal Aerodrome Forecast
Issued by NWS

Home | Current Version | Previous Version | Text Only | Print | Product List | Glossary On
Versions: 1 2 3 4 5 6 7 8 9 10 11 12 13 14 15 16 17
000
FTUS45 KSLC 242331
TAF36U
TAF
K36U 242331Z 2500/2524 VRB03KT P6SM SKC
     FM251700 22012G18KT P6SM SKC
     FM251900 21016G24KT P6SM SCT060=

USA.gov is the U.S. government's official web portal to all federal, state and local government web resources and services.